Aeroporto :
LOGIN :

Iscrizione | Disclaimer

   EN    FR    IT 

 










Sommario :    VFR   VFR Marginale   IFR   IFR Intensivo   IFR Molto Intensivo
Visibilità : 
Base nubi : 
>= 8 km
>= 3000ft
5 / 8 km
1000 / 3000 ft
1500m / 5 km
500 / 1000 ft
800 / 1500m
200 / 500 ft
< 800m
< 200 ft
Simboli :   Temporali  Nebbia  Neve Forte  Precipitazioni Forti  Vento > 20 kt
SIGMETs :   Varie  Temporali  Ghiacco  Turbolenza  Onda orograficha  Ceneri Vulcaniche






- Altitudine del aeroporto : 49 ft
- Codice IATA : GLZ


EHGR - Gilze-Rijen Airbase

ULTIMO METAR :
  • 151625Z AUTO 22008KT 180V260 9999 -RA FEW015CB BKN049 BKN061 06/05 Q1003 BLU

METARs OBSOLETI :
  • 151555Z AUTO 24010KT 9999 -DZ FEW015CB SCT025 BKN033 06/05 Q1003 REDZ BLU
  • 151542Z AUTO 25011KT 200V280 6000 -SHRA FEW015CB SCT022 OVC031 07/05 Q1003 WHT
  • 151526Z AUTO 24010KT 200V280 9999 -RADZ FEW015CB SCT022 BKN030 07/05 Q1002 WHT
  • 151525Z AUTO 23009KT 190V280 9999 -RA FEW015CB SCT028 BKN033 07/05 Q1002 RERA BLU
  • 151504Z AUTO 23012KT 9999 SHRA FEW002 SCT010 BKN016 07/05 Q1002 GRN
  • 151503Z AUTO 27011G25KT 250V310 1700 +SHRA FEW004 SCT016 OVC025 07/05 Q1002 YLO
  • 151455Z AUTO 25007KT 220V290 8000 -SHRA BKN025 OVC029 08/05 Q1002 BLU
  • 151425Z AUTO 21011KT 170V260 9999 FEW029 SCT034 BKN048 09/04 Q1001 BLU
  • 151355Z AUTO 22011KT 180V250 9999 FEW030 BKN049 BKN058 09/04 Q1001 BLU
  • 151325Z AUTO 22012KT 180V260 9999 SCT029 BKN034 OVC038 09/04 Q1000 BLU

Previsioni scadute.



MetMap, La meteo Aeronautica in un colpo d'occhio ! - Copyright ORBIFLY Dicembre 2007 - Disclaimer

ORBIFLY MET'MAP TEAM :

Programmazione e sviluppo : Alexandra Zaïnal
Concezione : Baudouin d'Aumeries
Aiuto per la programmazione : Marc-Olivier Méhu
Supporto tecnico e logistico : Manuel Goepfert
Aiuto per la traduzione : Arnaldo La Scala

Contatto : metmap@orbifly.com




FONTI E CREDITI :

   NOAA